This is the latest recevied weather packets stored in our database for station/object KG7MRB. If no packets are shown the sender has not sent any weather packets the latest 10 day(s).
| Time | Temp. | Humidity | Pressure | Rain* | Wind** | Luminosity | Snow |
|---|---|---|---|---|---|---|---|
| 1777422724 | 12.78° C | 74% | 1041.5 hPa | 0 mm | - | 37 W/m² | - |
| 1777422418 | 12.78° C | 74% | 1041.4 hPa | 0 mm | - | 41 W/m² | - |
| 1777421509 | 12.78° C | 76% | 1041.2 hPa | 0 mm | - | 54 W/m² | - |
| 1777418783 | 12.78° C | 73% | 1040.9 hPa | 0 mm | - | 71 W/m² | - |
| 1777416051 | 13.33° C | 71% | 1041 hPa | 0 mm | - | 102 W/m² | - |
| 1777415138 | 13.33° C | 72% | 1040.9 hPa | 0 mm | - | 129 W/m² | - |
| 1777413923 | 13.33° C | 71% | 1041 hPa | 0 mm | - | 177 W/m² | - |
| 1777413011 | 13.89° C | 69% | 1041.2 hPa | 0 mm | - | 237 W/m² | - |
| 1777412103 | 12.78° C | 75% | 1041.1 hPa | 0 mm | - | 179 W/m² | - |
| 1777411496 | 12.78° C | 77% | 1041 hPa | 0 mm | - | 106 W/m² | - |
| 1777408154 | 12.22° C | 77% | 1041.1 hPa | 0 mm | - | 89 W/m² | - |
| 1777406941 | 12.78° C | 73% | 1041.2 hPa | 0 mm | - | 98 W/m² | - |
| 1777406636 | 12.78° C | 70% | 1041.1 hPa | 0 mm | - | 107 W/m² | - |
| 1777403609 | 12.22° C | 76% | 1040.7 hPa | 0 mm | - | 102 W/m² | - |
| 1777403304 | 12.22° C | 74% | 1041.1 hPa | 0 mm | - | 105 W/m² | - |
| 1777397843 | 13.33° C | 69% | 1040.2 hPa | 0 mm | - | 361 W/m² | - |
| 1777396932 | 12.78° C | 70% | 1040.1 hPa | 0 mm | - | 314 W/m² | - |
| 1777395412 | 11.67° C | 72% | 1040.2 hPa | 0 mm | - | 234 W/m² | - |
| 1777393895 | 11.11° C | 74% | 1040.1 hPa | 0 mm | - | 137 W/m² | - |
| 1777393594 | 11.11° C | 74% | 1040.1 hPa | 0 mm | - | 152 W/m² | - |
| 1777393290 | 10.56° C | 74% | 1040 hPa | 0 mm | - | 154 W/m² | - |
| 1777392987 | 11.11° C | 74% | 1039.9 hPa | 0 mm | - | 150 W/m² | - |
| 1777392687 | 10.56° C | 74% | 1039.9 hPa | 0 mm | - | 148 W/m² | - |
| 1777391471 | 10.56° C | 75% | 1039.9 hPa | 0 mm | - | 107 W/m² | - |
| 1777390560 | 10.56° C | 76% | 1039.7 hPa | 0 mm | - | 79 W/m² | - |
* Rain latest hour (hover to see other rain measurements)
** Current wind speed in m/s (hover to see current wind gust speed)